Time;durP1;ratioP1;P1;durP2;ratioP2;P2;SDS_P1;SDS_P2;PMS_P1;PMS_P2;Temp;Humidity;BMP_temperature;BMP_pressure;BME280_temperature;BME280_humidity;BME280_pressure;Samples;Min_cycle;Max_cycle;Signal;HPM_P1;HPM_P2
2023/06/24 00:00:25;;;;;;;5.00;3.42;;;;;;;17.81;81.61;102443.25;5060207;28;20086;-70
2023/06/24 00:02:53;;;;;;;6.37;3.20;;;;;;;17.72;82.69;102444.50;5058825;28;20036;-70
2023/06/24 00:05:19;;;;;;;9.63;3.33;;;;;;;17.65;81.96;102440.81;5060158;28;20078;-70
2023/06/24 00:07:46;;;;;;;3.60;2.80;;;;;;;17.61;82.57;102450.63;5054295;28;20020;-71
2023/06/24 00:10:13;;;;;;;3.75;2.83;;;;;;;17.57;82.81;102449.31;5055488;28;20029;-69
2023/06/24 00:12:39;;;;;;;6.18;2.78;;;;;;;17.50;84.29;102452.03;5050008;28;20059;-70
2023/06/24 00:15:06;;;;;;;4.60;2.65;;;;;;;17.42;84.35;102448.56;5054371;28;20044;-70
2023/06/24 00:17:31;;;;;;;3.45;2.80;;;;;;;17.42;84.86;102443.03;5054309;28;20159;-70
2023/06/24 00:19:57;;;;;;;5.47;2.63;;;;;;;17.41;85.57;102444.09;5059931;28;20563;-70
2023/06/24 00:22:24;;;;;;;2.80;2.53;;;;;;;17.36;84.65;102452.13;5053650;28;20048;-70
2023/06/24 00:24:50;;;;;;;;;;;;;;;17.25;86.43;102452.69;5052425;28;20032;-70
2023/06/24 00:27:15;;;;;;;16.15;2.83;;;;;;;17.24;86.13;102443.50;5058672;28;19997;-70
2023/06/24 00:29:41;;;;;;;8.00;2.50;;;;;;;17.13;86.99;102449.59;5059096;28;20142;-71
2023/06/24 00:32:07;;;;;;;3.80;2.60;;;;;;;17.05;88.92;102448.91;5060563;28;20028;-71
2023/06/24 00:34:32;;;;;;;6.47;3.03;;;;;;;17.04;89.57;102452.72;5058644;28;20028;-71
2023/06/24 00:36:58;;;;;;;4.77;2.80;;;;;;;16.97;89.70;102449.88;5057736;28;20448;-71
2023/06/24 00:39:23;;;;;;;4.60;2.77;;;;;;;16.96;89.85;102452.88;5049998;28;20032;-71
2023/06/24 00:41:49;;;;;;;3.50;2.73;;;;;;;16.95;88.31;102449.25;5048578;28;20025;-70
2023/06/24 00:44:15;;;;;;;6.88;3.45;;;;;;;16.85;90.83;102456.16;5054704;28;20674;-71
2023/06/24 00:46:41;;;;;;;4.38;2.90;;;;;;;16.70;90.79;102447.94;5048910;28;20500;-70
2023/06/24 00:49:06;;;;;;;5.83;3.13;;;;;;;16.72;90.50;102451.38;5054117;28;20037;-70
2023/06/24 00:51:34;;;;;;;7.37;4.53;;;;;;;16.66;91.67;102452.16;5056994;28;20029;-70
2023/06/24 00:54:00;;;;;;;5.57;3.72;;;;;;;16.66;92.26;102460.44;5056315;28;20028;-71
2023/06/24 00:56:31;;;;;;;5.35;3.05;;;;;;;16.63;92.21;102452.56;5049523;28;20032;-71
2023/06/24 00:59:01;;;;;;;4.78;2.92;;;;;;;16.63;92.43;102452.56;5058257;28;20499;-70
2023/06/24 01:01:31;;;;;;;3.67;3.10;;;;;;;16.62;93.17;102456.38;5049910;28;20600;-70
2023/06/24 01:03:57;;;;;;;5.30;2.75;;;;;;;16.58;93.44;102448.66;5051746;28;20600;-71
2023/06/24 01:06:23;;;;;;;5.33;2.93;;;;;;;16.57;94.46;102453.34;5055804;28;20044;-70
2023/06/24 01:08:50;;;;;;;4.50;3.20;;;;;;;16.53;95.73;102445.63;5086626;28;20035;-70
2023/06/24 01:11:16;;;;;;;4.35;3.28;;;;;;;16.53;95.37;102445.63;5053356;28;20025;-70
2023/06/24 01:13:42;;;;;;;3.97;3.05;;;;;;;16.43;96.52;102437.66;5052995;28;20441;-70
2023/06/24 01:16:15;;;;;;;4.17;3.10;;;;;;;16.36;97.99;102445.00;5044068;28;20040;-69
2023/06/24 01:18:46;;;;;;;9.25;3.78;;;;;;;16.34;98.00;102440.72;5057719;28;20131;-69
2023/06/24 01:21:52;;;;;;;5.60;3.15;;;;;;;16.24;100.00;102434.66;5051695;28;20052;-70
2023/06/24 01:24:33;;;;;;;5.88;3.05;;;;;;;16.19;99.90;102429.72;5022800;28;20102;-70
2023/06/24 01:27:10;;;;;;;4.07;2.70;;;;;;;16.19;100.00;102431.63;5051988;28;20031;-69
2023/06/24 01:29:57;;;;;;;13.07;3.63;;;;;;;16.18;99.84;102424.38;5055315;28;20032;-70
2023/06/24 01:32:30;;;;;;;4.85;3.38;;;;;;;16.18;98.02;102422.44;5052274;28;20020;-71
2023/06/24 01:35:00;;;;;;;7.68;3.22;;;;;;;16.16;99.31;102427.31;5052269;28;20064;-70
2023/06/24 01:37:42;;;;;;;8.68;3.75;;;;;;;16.13;100.00;102421.34;5053325;28;20032;-72
2023/06/24 01:40:11;;;;;;;8.98;4.25;;;;;;;16.08;99.53;102423.81;5051057;28;20088;-71
2023/06/24 01:42:42;;;;;;;13.20;5.35;;;;;;;16.07;100.00;102417.44;5047533;28;20040;-71
2023/06/24 01:45:13;;;;;;;18.10;7.35;;;;;;;16.02;100.00;102417.16;5046122;28;20481;-71
2023/06/24 01:47:43;;;;;;;18.08;6.05;;;;;;;16.00;100.00;102410.13;5088700;28;20031;-71
2023/06/24 01:50:11;;;;;;;18.25;7.47;;;;;;;16.02;100.00;102408.84;5050764;28;20492;-71
2023/06/24 01:52:40;;;;;;;18.15;7.80;;;;;;;15.99;100.00;102402.88;5058919;28;20025;-72
2023/06/24 01:55:08;;;;;;;18.92;7.45;;;;;;;15.98;100.00;102403.94;5054308;28;20036;-71
2023/06/24 01:57:36;;;;;;;16.15;6.85;;;;;;;15.92;100.00;102397.28;5051915;28;20056;-71
2023/06/24 02:00:05;;;;;;;21.38;7.15;;;;;;;15.91;100.00;102394.72;5050987;28;20106;-71
2023/06/24 02:02:32;;;;;;;14.43;6.97;;;;;;;15.89;100.00;102405.09;5053823;28;20036;-71
2023/06/24 02:05:01;;;;;;;19.15;7.10;;;;;;;15.86;100.00;102408.25;5051281;28;20064;-71
2023/06/24 02:07:29;;;;;;;17.58;7.25;;;;;;;15.86;100.00;102408.25;5064850;28;20378;-70
2023/06/24 02:09:56;;;;;;;16.05;7.53;;;;;;;15.80;100.00;102404.34;5055152;28;20020;-71
2023/06/24 02:12:24;;;;;;;12.32;6.38;;;;;;;15.83;100.00;102408.63;5056297;28;20547;-70
2023/06/24 02:14:51;;;;;;;16.88;7.85;;;;;;;15.77;100.00;102409.41;5049667;28;20112;-71
2023/06/24 02:17:17;;;;;;;15.95;6.95;;;;;;;15.75;100.00;102401.28;5052444;28;20496;-71
2023/06/24 02:19:43;;;;;;;11.13;6.03;;;;;;;15.74;100.00;102404.28;5055012;28;20086;-71
2023/06/24 02:22:09;;;;;;;13.23;7.13;;;;;;;15.68;100.00;102400.38;5056208;28;20128;-71
2023/06/24 02:24:38;;;;;;;18.13;7.17;;;;;;;15.68;100.00;102408.66;5050951;28;20124;-71
2023/06/24 02:27:06;;;;;;;12.30;6.40;;;;;;;15.64;100.00;102407.31;5058952;28;20028;-71
2023/06/24 02:29:33;;;;;;;18.15;6.57;;;;;;;15.68;100.00;102405.88;5055538;28;20040;-71
2023/06/24 02:31:59;;;;;;;15.57;6.85;;;;;;;15.65;100.00;102394.38;5056200;28;20056;-71
2023/06/24 02:34:25;;;;;;;10.87;6.10;;;;;;;15.65;100.00;102405.41;5058922;28;20441;-71
2023/06/24 02:36:50;;;;;;;14.10;6.53;;;;;;;15.65;100.00;102400.75;5058916;28;20032;-70
2023/06/24 02:39:16;;;;;;;13.93;6.00;;;;;;;15.66;100.00;102401.59;5056920;28;20064;-71
2023/06/24 02:41:42;;;;;;;10.23;5.77;;;;;;;15.65;100.00;102402.66;5056887;28;20025;-70
2023/06/24 02:44:07;;;;;;;14.50;6.53;;;;;;;15.60;100.00;102403.25;5073808;28;20071;-70
2023/06/24 02:46:36;;;;;;;15.40;5.23;;;;;;;15.59;100.00;102397.91;5058120;28;20276;-70
2023/06/24 02:49:02;;;;;;;12.88;5.50;;;;;;;15.60;100.00;102402.38;5062976;28;20029;-69
2023/06/24 02:51:28;;;;;;;;;;;;;;;15.59;100.00;102398.75;5062944;28;20078;-70
2023/06/24 02:53:55;;;;;;;9.88;6.18;;;;;;;15.54;100.00;102387.41;5061639;28;19909;-70
2023/06/24 02:56:20;;;;;;;;;;;;;;;15.53;100.00;102395.91;5062092;28;20025;-70
2023/06/24 02:58:47;;;;;;;10.43;4.93;;;;;;;15.54;100.00;102398.47;5059680;28;19927;-70
2023/06/24 03:01:13;;;;;;;14.52;5.15;;;;;;;15.56;100.00;102406.56;5058468;28;20029;-70
2023/06/24 03:03:41;;;;;;;10.30;5.10;;;;;;;15.55;100.00;102391.91;5061912;28;20025;-70
2023/06/24 03:06:06;;;;;;;7.57;4.63;;;;;;;15.58;100.00;102398.97;5060846;28;20395;-71
2023/06/24 03:08:32;;;;;;;6.17;4.50;;;;;;;15.58;100.00;102404.50;5061719;28;20024;-70
2023/06/24 03:10:58;;;;;;;9.50;4.70;;;;;;;15.57;100.00;102394.47;5051677;28;20360;-70
2023/06/24 03:13:24;;;;;;;8.87;4.03;;;;;;;15.56;100.00;102395.50;5060029;28;20025;-70
2023/06/24 03:15:49;;;;;;;9.00;5.30;;;;;;;15.57;100.00;102388.94;5057302;28;20020;-70
2023/06/24 03:18:16;;;;;;;8.60;4.80;;;;;;;15.59;100.00;102386.84;5060811;28;20549;-70
2023/06/24 03:20:42;;;;;;;10.35;4.45;;;;;;;15.62;100.00;102397.50;5056985;28;20036;-70
2023/06/24 03:23:07;;;;;;;11.53;4.60;;;;;;;15.64;100.00;102389.91;5058914;28;20048;-70
2023/06/24 03:25:34;;;;;;;7.07;4.67;;;;;;;15.61;100.00;102382.84;5058623;28;20035;-70
2023/06/24 03:28:00;;;;;;;7.15;4.85;;;;;;;15.63;100.00;102386.28;5056919;28;20043;-70
2023/06/24 03:30:26;;;;;;;6.85;4.65;;;;;;;15.65;100.00;102399.91;5050884;28;20559;-70
2023/06/24 03:32:52;;;;;;;7.82;4.95;;;;;;;15.66;100.00;102390.56;5053613;28;20118;-70
2023/06/24 03:35:18;;;;;;;7.90;4.67;;;;;;;15.64;100.00;102390.75;5059070;28;20507;-70
2023/06/24 03:37:43;;;;;;;7.80;4.70;;;;;;;15.65;100.00;102392.47;5057028;28;20028;-71
2023/06/24 03:40:09;;;;;;;13.93;5.60;;;;;;;15.73;100.00;102395.13;5059404;28;20277;-70
2023/06/24 03:42:35;;;;;;;13.23;6.27;;;;;;;15.76;100.00;102393.88;5060816;28;20429;-70
2023/06/24 03:45:03;;;;;;;8.93;5.13;;;;;;;15.82;100.00;102398.63;5055964;28;20039;-71
2023/06/24 03:47:28;;;;;;;10.27;5.53;;;;;;;15.83;100.00;102392.03;5057894;28;20032;-70
2023/06/24 03:49:54;;;;;;;8.83;4.87;;;;;;;15.86;100.00;102397.19;5059578;28;20034;-70
2023/06/24 03:52:19;;;;;;;6.67;5.27;;;;;;;15.99;100.00;102391.81;5061380;28;20030;-70
2023/06/24 03:54:46;;;;;;;11.43;5.40;;;;;;;16.04;100.00;102397.63;5058632;28;20021;-71
2023/06/24 03:57:12;;;;;;;7.53;5.93;;;;;;;16.13;100.00;102400.09;5057773;28;20499;-70
2023/06/24 03:59:37;;;;;;;12.13;5.68;;;;;;;16.14;100.00;102400.91;5055617;28;20055;-70
2023/06/24 04:02:07;;;;;;;11.93;6.10;;;;;;;16.14;100.00;102389.88;5057258;28;20391;-71
2023/06/24 04:04:33;;;;;;;8.68;6.05;;;;;;;16.15;100.00;102395.22;5054368;28;20033;-70
2023/06/24 04:06:58;;;;;;;11.73;6.47;;;;;;;16.23;100.00;102397.00;5054982;28;20058;-70
2023/06/24 04:09:24;;;;;;;11.80;5.30;;;;;;;16.29;100.00;102397.06;5056169;28;20032;-70
2023/06/24 04:11:49;;;;;;;13.00;6.83;;;;;;;16.29;100.00;102404.50;5058356;28;20036;-70
2023/06/24 04:14:15;;;;;;;7.37;5.70;;;;;;;16.32;100.00;102404.13;5057573;28;20681;-71
2023/06/24 04:16:40;;;;;;;9.93;5.80;;;;;;;16.33;100.00;102405.81;5053665;28;20037;-70
2023/06/24 04:19:05;;;;;;;9.60;6.53;;;;;;;16.37;100.00;102404.34;5051174;28;20087;-70
2023/06/24 04:21:31;;;;;;;11.03;5.23;;;;;;;16.41;100.00;102409.34;5055364;28;20096;-71
2023/06/24 04:23:56;;;;;;;13.17;6.93;;;;;;;16.47;100.00;102405.78;5053914;28;20304;-71
2023/06/24 04:26:22;;;;;;;11.50;6.37;;;;;;;16.54;100.00;102409.47;5062134;28;20032;-70
2023/06/24 04:28:47;;;;;;;9.33;6.20;;;;;;;16.59;100.00;102406.97;5059453;28;20047;-70
2023/06/24 04:31:12;;;;;;;6.60;5.90;;;;;;;16.64;100.00;102418.28;5055676;28;20032;-71
2023/06/24 04:33:38;;;;;;;12.07;6.33;;;;;;;16.78;100.00;102409.06;5054351;28;20020;-70
2023/06/24 04:36:04;;;;;;;11.40;6.87;;;;;;;16.91;100.00;102420.25;5061449;28;20369;-70
2023/06/24 04:38:29;;;;;;;8.10;6.03;;;;;;;16.99;99.38;102417.34;5057508;28;20068;-70
2023/06/24 04:40:55;;;;;;;9.37;6.80;;;;;;;17.12;98.66;102417.44;5061170;28;20033;-70
2023/06/24 04:43:20;;;;;;;10.60;6.07;;;;;;;17.17;98.24;102419.59;5062259;28;20761;-70
2023/06/24 04:45:45;;;;;;;11.13;6.77;;;;;;;17.24;97.15;102424.13;5058027;28;20036;-71
2023/06/24 04:48:11;;;;;;;11.43;6.80;;;;;;;17.30;96.92;102419.69;5060964;28;20020;-70
2023/06/24 04:50:36;;;;;;;8.53;6.20;;;;;;;17.35;96.98;102422.72;5059613;28;20322;-70
2023/06/24 04:53:01;;;;;;;15.87;7.00;;;;;;;17.45;95.97;102409.38;5053818;28;20035;-70
2023/06/24 04:55:31;;;;;;;10.77;7.27;;;;;;;17.54;95.31;102419.22;5056870;28;20108;-71
2023/06/24 04:57:57;;;;;;;14.15;7.38;;;;;;;17.59;95.26;102411.16;5054589;28;20365;-70
2023/06/24 05:00:24;;;;;;;11.40;7.37;;;;;;;17.67;94.93;102417.38;5056137;28;20039;-71
2023/06/24 05:02:49;;;;;;;;;;;;;;;17.83;94.81;102424.50;5054672;28;20392;-70
2023/06/24 05:05:14;;;;;;;13.90;7.43;;;;;;;17.89;94.30;102416.22;5048904;28;19918;-70
2023/06/24 05:07:40;;;;;;;10.00;7.50;;;;;;;18.00;94.11;102425.88;5046899;28;20396;-70
2023/06/24 05:10:06;;;;;;;13.17;8.10;;;;;;;18.17;92.72;102421.66;5056398;28;20025;-71
2023/06/24 05:12:31;;;;;;;9.77;7.95;;;;;;;18.45;92.25;102425.16;5056958;28;20115;-71
2023/06/24 05:14:57;;;;;;;17.67;7.73;;;;;;;19.06;89.93;102426.72;5062771;28;20555;-71
2023/06/24 05:17:22;;;;;;;13.77;6.73;;;;;;;19.92;84.15;102427.22;5053398;28;20583;-71
2023/06/24 05:19:49;;;;;;;11.23;7.37;;;;;;;20.74;79.81;102425.28;5056535;28;20119;-71
2023/06/24 05:22:14;;;;;;;11.43;8.35;;;;;;;21.43;76.13;102433.47;5052205;28;20492;-71
2023/06/24 05:24:41;;;;;;;12.80;7.30;;;;;;;22.26;71.00;102439.16;5052888;28;20109;-71
2023/06/24 05:27:07;;;;;;;11.65;7.47;;;;;;;22.57;68.92;102443.72;5050643;28;20029;-71
2023/06/24 05:29:33;;;;;;;8.85;6.90;;;;;;;22.94;67.39;102439.72;5052511;28;20049;-71
2023/06/24 05:31:59;;;;;;;15.35;6.68;;;;;;;23.25;65.19;102443.06;5045761;28;20527;-70
2023/06/24 05:34:25;;;;;;;9.02;7.00;;;;;;;23.83;66.16;102429.91;5060717;28;20383;-71
2023/06/24 05:36:51;;;;;;;8.65;6.70;;;;;;;23.94;63.68;102442.19;5056967;28;20037;-71
2023/06/24 05:39:17;;;;;;;9.37;6.77;;;;;;;24.25;63.29;102445.41;5052636;28;20040;-72
2023/06/24 05:41:43;;;;;;;9.85;6.57;;;;;;;24.45;60.86;102448.63;5059073;28;20057;-71
2023/06/24 05:44:12;;;;;;;11.40;6.60;;;;;;;24.78;61.68;102451.53;5050767;28;20033;-71
2023/06/24 05:46:37;;;;;;;10.73;6.85;;;;;;;25.14;59.81;102451.06;5056483;28;20036;-73
2023/06/24 05:49:03;;;;;;;9.20;6.85;;;;;;;24.72;63.36;102452.56;5058696;28;20021;-74
2023/06/24 05:51:28;;;;;;;10.55;6.68;;;;;;;25.12;61.53;102455.25;5060720;28;20024;-73
2023/06/24 05:53:54;;;;;;;9.57;6.00;;;;;;;25.77;57.33;102457.16;5048492;28;20029;-72
2023/06/24 05:56:22;;;;;;;9.18;6.82;;;;;;;25.68;58.84;102452.25;5050370;28;20359;-74
2023/06/24 05:58:48;;;;;;;9.48;6.47;;;;;;;25.76;58.66;102451.81;5056699;28;20033;-72
2023/06/24 06:01:13;;;;;;;12.02;6.75;;;;;;;25.69;58.98;102454.81;5055024;28;20480;-74
2023/06/24 06:03:39;;;;;;;9.35;6.53;;;;;;;26.33;55.61;102454.03;5086011;28;20032;-74
2023/06/24 06:06:04;;;;;;;;;;;;;;;26.36;57.27;102449.84;5057166;28;20047;-72
2023/06/24 06:08:30;;;;;;;9.07;6.90;;;;;;;26.31;55.73;102445.00;5056472;28;20303;-72
2023/06/24 06:10:55;;;;;;;9.13;6.50;;;;;;;26.17;57.53;102454.09;5058701;28;20115;-72
2023/06/24 06:13:20;;;;;;;9.13;6.63;;;;;;;26.61;56.43;102452.97;5056070;28;20399;-72
2023/06/24 06:15:46;;;;;;;;;;;;;;;26.36;56.38;102456.31;5051780;28;20122;-72
2023/06/24 06:18:11;;;;;;;9.15;6.43;;;;;;;26.33;56.29;102455.97;5057504;28;19917;-72
2023/06/24 06:20:37;;;;;;;;;;;;;;;26.56;56.16;102453.78;5056629;28;20037;-72
2023/06/24 06:23:02;;;;;;;11.38;7.35;;;;;;;26.58;56.09;102456.31;5063490;28;19928;-72
2023/06/24 06:25:27;;;;;;;;;;;;;;;26.94;54.16;102464.03;5062279;28;20100;-72
2023/06/24 06:27:53;;;;;;;10.38;7.43;;;;;;;27.29;55.59;102461.56;5062342;28;20303;-72
2023/06/24 06:30:18;;;;;;;;;;;;;;;26.82;55.78;102460.50;5059060;28;20103;-73
2023/06/24 06:32:43;;;;;;;16.92;6.60;;;;;;;26.64;55.54;102467.38;5063442;28;19912;-73
2023/06/24 06:35:08;;;;;;;;;;;;;;;27.07;54.96;102460.75;5060625;28;20028;-72
2023/06/24 06:37:34;;;;;;;9.68;7.10;;;;;;;27.33;53.38;102462.72;5057725;28;20047;-72
2023/06/24 06:39:59;;;;;;;;;;;;;;;27.27;53.87;102455.34;5061749;28;20116;-73
2023/06/24 06:42:26;;;;;;;14.90;7.35;;;;;;;26.79;55.07;102463.88;5060895;28;20013;-73
2023/06/24 06:44:51;;;;;;;8.02;6.63;;;;;;;27.66;53.98;102460.44;5060344;28;20399;-73
2023/06/24 06:47:16;;;;;;;;;;;;;;;27.42;54.50;102464.75;5054955;28;20029;-73
2023/06/24 06:49:42;;;;;;;15.35;6.85;;;;;;;28.10;52.98;102475.97;5060451;28;19920;-73
2023/06/24 06:52:07;;;;;;;10.05;6.68;;;;;;;27.86;53.59;102476.66;5061764;28;20036;-73
2023/06/24 06:54:32;;;;;;;;;;;;;;;27.93;51.72;102474.44;5057348;28;20033;-73
2023/06/24 06:57:02;;;;;;;8.20;6.40;;;;;;;28.16;52.47;102474.03;5062333;28;20352;-73
2023/06/24 06:59:27;;;;;;;10.50;7.40;;;;;;;27.62;54.42;102470.56;5061381;28;20671;-73
2023/06/24 07:01:53;;;;;;;;;;;;;;;27.98;53.17;102469.69;5047858;28;20032;-72
2023/06/24 07:04:18;;;;;;;10.60;7.65;;;;;;;27.51;53.69;102465.09;5054731;28;19936;-73
2023/06/24 07:06:44;;;;;;;;;;;;;;;27.96;53.89;102462.63;5054999;28;20021;-73
2023/06/24 07:09:09;;;;;;;11.15;7.90;;;;;;;27.94;53.27;102459.22;5063597;28;20360;-74
2023/06/24 07:11:34;;;;;;;;;;;;;;;27.75;54.86;102470.06;5055290;28;20073;-74
2023/06/24 07:14:00;;;;;;;12.27;7.43;;;;;;;27.36;55.00;102468.66;5057994;28;20372;-74
2023/06/24 07:16:25;;;;;;;12.20;8.13;;;;;;;27.93;54.45;102475.31;5056995;28;20770;-74
2023/06/24 07:18:50;;;;;;;9.75;7.72;;;;;;;27.89;55.40;102467.66;5052515;28;20033;-74
2023/06/24 07:21:16;;;;;;;12.13;7.50;;;;;;;27.42;55.15;102464.75;5059052;28;20089;-74
2023/06/24 07:23:41;;;;;;;14.18;7.55;;;;;;;27.88;54.80;102474.41;5056417;28;20076;-73
2023/06/24 07:26:07;;;;;;;8.82;6.50;;;;;;;27.80;54.60;102474.94;5060981;28;20036;-74
2023/06/24 07:28:32;;;;;;;14.30;8.15;;;;;;;27.30;56.16;102468.88;5044890;28;20112;-74
2023/06/24 07:30:57;;;;;;;16.65;7.15;;;;;;;27.46;54.71;102474.38;5045006;28;20049;-74
2023/06/24 07:33:23;;;;;;;12.38;7.82;;;;;;;27.43;54.49;102466.44;5051439;28;20099;-74
2023/06/24 07:35:48;;;;;;;12.70;8.05;;;;;;;27.83;53.21;102469.59;5053557;28;20033;-74
2023/06/24 07:38:14;;;;;;;13.80;7.00;;;;;;;27.67;53.70;102469.72;5058091;28;20408;-74
2023/06/24 07:40:39;;;;;;;10.85;7.43;;;;;;;27.17;55.94;102470.19;5057891;28;20036;-74
2023/06/24 07:43:04;;;;;;;10.33;7.67;;;;;;;26.57;57.60;102475.16;5052407;28;20036;-74
2023/06/24 07:45:30;;;;;;;14.67;7.77;;;;;;;26.54;57.07;102469.16;5057932;28;20315;-74
2023/06/24 07:47:55;;;;;;;13.03;8.93;;;;;;;26.79;57.27;102475.13;5054110;28;20025;-73
2023/06/24 07:50:21;;;;;;;14.63;9.10;;;;;;;26.76;57.77;102467.19;5057651;28;20717;-74
2023/06/24 07:52:46;;;;;;;13.87;8.90;;;;;;;26.52;58.81;102477.03;5058116;28;20035;-74
2023/06/24 07:55:11;;;;;;;15.30;10.10;;;;;;;26.65;57.89;102477.50;5053439;28;20029;-74
2023/06/24 07:57:37;;;;;;;13.30;9.27;;;;;;;26.55;59.92;102470.91;5049329;28;20504;-74
2023/06/24 08:00:04;;;;;;;16.20;10.13;;;;;;;26.48;58.82;102476.72;5058174;28;20443;-74
2023/06/24 08:02:29;;;;;;;11.05;8.45;;;;;;;26.61;58.14;102473.50;5055842;28;20029;-74
2023/06/24 08:04:55;;;;;;;13.93;8.10;;;;;;;26.50;57.55;102471.66;5059242;28;20104;-74
2023/06/24 08:07:20;;;;;;;14.00;8.50;;;;;;;26.25;60.30;102481.75;5050108;28;20044;-75
2023/06/24 08:09:46;;;;;;;14.27;9.40;;;;;;;26.21;58.47;102474.94;5046563;28;20052;-73
2023/06/24 08:12:11;;;;;;;15.93;9.43;;;;;;;26.05;60.02;102470.25;5051801;28;20024;-73
2023/06/24 08:14:36;;;;;;;13.90;7.60;;;;;;;26.21;61.32;102469.31;5046686;28;20120;-73
2023/06/24 08:17:02;;;;;;;12.53;8.97;;;;;;;26.24;59.27;102463.19;5053134;28;20021;-73
2023/06/24 08:19:27;;;;;;;13.18;8.43;;;;;;;26.29;59.68;102464.09;5045298;28;20115;-74
2023/06/24 08:21:53;;;;;;;16.87;8.63;;;;;;;25.92;60.39;102471.47;5049746;28;20457;-73
2023/06/24 08:24:18;;;;;;;12.98;8.18;;;;;;;26.13;60.45;102465.00;5045051;28;20028;-74
2023/06/24 08:26:44;;;;;;;12.73;7.95;;;;;;;26.09;59.85;102465.81;5046125;28;20507;-74
2023/06/24 08:29:09;;;;;;;14.73;8.20;;;;;;;26.02;60.60;102465.13;5050204;28;20032;-74
2023/06/24 08:31:34;;;;;;;19.73;8.10;;;;;;;26.01;60.99;102464.28;5045904;28;20064;-74
2023/06/24 08:34:02;;;;;;;15.77;9.87;;;;;;;26.17;60.17;102468.16;5051855;28;20028;-74
2023/06/24 08:36:29;;;;;;;14.40;10.50;;;;;;;25.96;60.46;102467.03;5052035;28;20055;-73
2023/06/24 08:38:54;;;;;;;15.23;10.43;;;;;;;26.03;60.81;102470.50;5054063;28;20028;-73
2023/06/24 08:41:20;;;;;;;15.23;11.63;;;;;;;25.88;60.98;102463.78;5048675;28;20033;-74
2023/06/24 08:43:45;;;;;;;19.97;11.07;;;;;;;25.76;61.59;102466.69;5048826;28;20077;-74
2023/06/24 08:46:13;;;;;;;13.43;10.07;;;;;;;26.06;60.57;102463.50;5046935;28;20702;-73
2023/06/24 08:48:41;;;;;;;16.17;9.55;;;;;;;25.99;61.52;102465.66;5044837;28;20028;-74
2023/06/24 08:51:13;;;;;;;18.90;11.73;;;;;;;25.83;61.27;102460.91;5043348;28;20021;-73
2023/06/24 08:53:42;;;;;;;17.90;10.95;;;;;;;25.83;61.09;102472.13;5046337;28;20041;-73
2023/06/24 08:56:07;;;;;;;16.25;11.05;;;;;;;25.89;61.82;102471.09;5043509;28;20093;-74
2023/06/24 08:58:33;;;;;;;18.20;11.43;;;;;;;25.71;62.14;102472.22;5048423;28;20052;-74
2023/06/24 09:01:00;;;;;;;15.35;10.55;;;;;;;25.98;62.92;102466.78;5047167;28;20028;-74
2023/06/24 09:06:00;;;;;;;14.50;10.32;;;;;;;26.39;61.10;102466.16;5523442;22;20056;-74
2023/06/24 09:08:26;;;;;;;16.10;11.37;;;;;;;26.47;61.24;102468.53;5032311;28;20249;-75
2023/06/24 09:10:57;;;;;;;20.47;13.33;;;;;;;26.39;60.46;102463.38;5027874;28;20029;-75
2023/06/24 09:13:43;;;;;;;18.08;13.73;;;;;;;26.34;61.30;102457.69;5044869;28;20396;-74
2023/06/24 09:16:16;;;;;;;21.02;13.05;;;;;;;26.28;60.98;102453.97;5043969;28;20044;-74
2023/06/24 09:18:47;;;;;;;17.42;13.02;;;;;;;26.71;60.77;102448.31;5042321;28;20369;-76
2023/06/24 09:21:13;;;;;;;21.85;13.02;;;;;;;26.93;60.16;102460.34;5020774;28;20049;-75
2023/06/24 09:23:39;;;;;;;19.00;12.30;;;;;;;27.00;60.84;102457.34;5042730;28;20082;-74
2023/06/24 09:26:05;;;;;;;;;;;;;;;26.87;60.03;102454.94;5041116;28;20025;-75
2023/06/24 09:28:30;;;;;;;21.02;13.23;;;;;;;27.02;59.86;102444.69;5025528;28;19922;-74
2023/06/24 09:31:09;;;;;;;16.27;12.63;;;;;;;26.80;60.14;102454.31;5043645;28;20028;-74
2023/06/24 09:33:35;;;;;;;20.27;13.45;;;;;;;27.08;58.81;102454.00;5026936;28;20029;-74
2023/06/24 09:36:04;;;;;;;18.17;12.32;;;;;;;27.08;57.73;102446.44;5031346;28;20578;-74
2023/06/24 09:38:37;;;;;;;18.00;13.00;;;;;;;27.30;58.46;102450.03;5046796;28;20079;-74
2023/06/24 09:41:04;;;;;;;17.88;13.82;;;;;;;27.30;57.20;102450.03;5043726;28;20025;-74
2023/06/24 09:43:30;;;;;;;18.50;12.75;;;;;;;27.53;57.72;102448.81;5025625;28;20409;-74
2023/06/24 09:45:58;;;;;;;21.02;15.25;;;;;;;27.15;57.55;102451.84;5055716;28;20025;-74
2023/06/24 09:48:24;;;;;;;16.17;12.07;;;;;;;27.76;57.37;102457.69;5050730;28;20043;-74
2023/06/24 09:50:50;;;;;;;16.90;13.02;;;;;;;27.79;56.91;102451.53;5045485;28;20484;-74
2023/06/24 09:53:15;;;;;;;17.92;13.00;;;;;;;27.38;56.23;102448.69;5037077;28;20117;-74
2023/06/24 09:55:43;;;;;;;17.30;12.68;;;;;;;27.51;56.40;102436.94;5043526;28;20074;-74
2023/06/24 09:58:11;;;;;;;15.95;12.00;;;;;;;27.87;54.66;102444.53;5045842;28;20085;-74
2023/06/24 10:00:37;;;;;;;18.50;12.98;;;;;;;27.94;54.14;102436.69;5055708;28;20029;-74
2023/06/24 10:03:02;;;;;;;25.60;15.35;;;;;;;28.13;55.00;102435.09;5055721;28;20036;-74
2023/06/24 10:05:28;;;;;;;23.80;14.05;;;;;;;28.06;53.96;102431.69;5053952;28;20159;-74
2023/06/24 10:07:54;;;;;;;17.23;13.38;;;;;;;28.42;53.33;102436.34;5027782;28;20116;-73
2023/06/24 10:10:19;;;;;;;17.00;12.80;;;;;;;28.26;54.37;102438.25;5034723;28;20510;-74
2023/06/24 10:12:45;;;;;;;19.07;12.50;;;;;;;28.07;53.35;102439.03;5041423;28;20451;-74
2023/06/24 10:15:11;;;;;;;18.48;13.98;;;;;;;27.91;55.41;102442.88;5032214;28;20081;-74
2023/06/24 10:17:37;;;;;;;17.15;11.68;;;;;;;28.07;53.31;102447.47;5043953;28;20088;-74
2023/06/24 10:20:06;;;;;;;14.52;10.77;;;;;;;28.21;51.11;102443.88;5043745;28;20120;-74
2023/06/24 10:22:32;;;;;;;17.13;12.15;;;;;;;28.07;53.21;102430.56;5046895;28;20036;-75
2023/06/24 10:25:05;;;;;;;23.90;12.82;;;;;;;28.30;52.42;102435.72;5049653;28;20041;-74
2023/06/24 10:27:38;;;;;;;18.20;13.02;;;;;;;28.48;53.65;102436.09;5049423;28;20150;-75
2023/06/24 10:30:04;;;;;;;16.35;11.05;;;;;;;28.59;52.04;102437.00;5053754;28;20033;-74
2023/06/24 10:32:41;;;;;;;11.60;9.77;;;;;;;28.77;50.72;102439.28;5044322;28;20088;-74
2023/06/24 10:35:07;;;;;;;18.73;12.95;;;;;;;28.46;52.54;102437.50;5037256;28;20091;-74
2023/06/24 10:37:33;;;;;;;21.00;15.82;;;;;;;28.38;54.02;102433.25;5051947;28;20040;-74
2023/06/24 10:40:00;;;;;;;28.45;15.98;;;;;;;28.43;53.95;102435.25;5047161;28;20057;-74
2023/06/24 10:42:46;;;;;;;17.35;13.35;;;;;;;28.59;53.24;102434.19;5049465;28;20086;-74
2023/06/24 10:45:12;;;;;;;18.63;13.05;;;;;;;28.76;54.47;102431.94;5031999;28;20059;-73
2023/06/24 10:47:42;;;;;;;19.08;12.32;;;;;;;28.53;52.99;102427.66;5044751;28;20024;-73
2023/06/24 10:50:11;;;;;;;20.67;12.75;;;;;;;28.87;52.40;102428.84;5031865;28;20142;-74
2023/06/24 10:52:42;;;;;;;18.15;13.75;;;;;;;28.69;51.31;102415.28;5057302;28;20037;-74
2023/06/24 10:55:08;;;;;;;19.83;13.82;;;;;;;28.83;52.51;102435.34;5054719;28;20108;-74
2023/06/24 10:57:33;;;;;;;;;;;;;;;29.11;51.49;102426.34;5035075;28;20021;-74
2023/06/24 10:59:59;;;;;;;18.48;10.52;;;;;;;29.32;48.88;102425.22;5056178;28;19922;-74
2023/06/24 11:02:26;;;;;;;23.67;9.55;;;;;;;29.26;48.69;102417.88;5035833;28;20025;-74
2023/06/24 11:04:55;;;;;;;15.07;12.38;;;;;;;29.16;48.21;102423.53;5034451;28;20071;-74
2023/06/24 11:07:25;;;;;;;13.48;10.43;;;;;;;29.03;49.45;102422.13;5060336;28;20020;-74
2023/06/24 11:09:58;;;;;;;13.98;10.07;;;;;;;28.92;48.03;102413.91;5060919;28;20031;-74
2023/06/24 11:12:30;;;;;;;16.42;8.48;;;;;;;29.23;48.27;102418.47;5053878;28;20090;-74
2023/06/24 11:15:02;;;;;;;15.00;10.55;;;;;;;28.80;46.88;102410.53;5048182;28;20090;-72
2023/06/24 11:17:28;;;;;;;12.68;7.20;;;;;;;29.38;46.36;102408.00;5054095;28;20117;-74
2023/06/24 11:19:54;;;;;;;9.75;6.22;;;;;;;29.63;44.33;102407.13;5034745;28;20116;-74
2023/06/24 11:22:19;;;;;;;;;;;;;;;29.69;43.61;102414.47;5056635;28;20059;-74